Terminal Aerodrome Forecast
Issued by NWS Hastings, NE

Home | Current Version | Previous Version | Text Only | Print | Product List | Glossary On
Versions: 1 2 3 4 5 6 7 8 9 10 11 12 13 14 15 16 17 18 19 20 21 22 23 24 25 26
421
FTUS43 KGID 190537
TAFGRI
TAF
KGRI 190537Z 1906/2006 05005KT P6SM VCTS SCT070CB WS020/19030KT
     FM191200 VRB04KT P6SM VCTS FEW006CB SCT200
     FM191400 19006KT P6SM VCTS SCT150CB
     FM191600 21008KT P6SM FEW120=

USA.gov is the U.S. government's official web portal to all federal, state and local government web resources and services.